This is the latest recevied weather packets stored in our database for station/object N5GAH-13. If no packets are shown the sender has not sent any weather packets the latest 10 day(s).
| Time | Temp. | Humidity | Pressure | Rain* | Wind** | Luminosity | Snow |
|---|---|---|---|---|---|---|---|
| 1777078411 | 29.44° C | 8% | 1011.2 hPa | 0 mm | - | - | - |
| 1777074810 | 30.56° C | 8% | 1011.4 hPa | 0 mm | - | - | - |
| 1777073011 | 30.56° C | 8% | 1011.4 hPa | 0 mm | - | - | - |
| 1777071211 | 31.67° C | 8% | 1011.6 hPa | 0 mm | - | - | - |
| 1777069410 | 31.67° C | 8% | 1011.9 hPa | 0 mm | - | - | - |
| 1777067610 | 32.22° C | 7% | 1012.2 hPa | 0 mm | - | - | - |
| 1777065811 | 32.22° C | 7% | 1012.7 hPa | 0 mm | - | - | - |
| 1777064010 | 31.67° C | 7% | 1013 hPa | 0 mm | - | - | - |
| 1777062209 | 31.67° C | 6% | 1013.1 hPa | 0 mm | - | - | - |
| 1777060410 | 31.67° C | 7% | 1013.4 hPa | 0 mm | - | - | - |
| 1777058610 | 31.67° C | 8% | 1013.7 hPa | 0 mm | - | - | - |
| 1777056811 | 31.11° C | 7% | 1014 hPa | 0 mm | - | - | - |
| 1777055010 | 30.56° C | 8% | 1014.7 hPa | 0 mm | - | - | - |
| 1777053211 | 30° C | 9% | 1015 hPa | 0 mm | - | - | - |
| 1777051410 | 29.44° C | 9% | 1015.4 hPa | 0 mm | - | - | - |
| 1777047811 | 26.11° C | 11% | 1015.7 hPa | 0 mm | - | - | - |
| 1777046011 | 25° C | 11% | 1015.6 hPa | 0 mm | - | - | - |
| 1777044210 | 23.33° C | 14% | 1015.5 hPa | 0 mm | - | - | - |
| 1777042409 | 21.11° C | 17% | 1015.7 hPa | 0 mm | - | - | - |
| 1777040610 | 19.44° C | 18% | 1015.5 hPa | 0 mm | - | - | - |
| 1777038809 | 16.67° C | 19% | 1015.2 hPa | 0 mm | - | - | - |
| 1777037009 | 13.89° C | 23% | 1015.2 hPa | 0 mm | - | - | - |
| 1777035209 | 12.78° C | 23% | 1014.8 hPa | 0 mm | - | - | - |
| 1777033409 | 13.33° C | 21% | 1014 hPa | 0 mm | - | - | - |
| 1777031609 | 13.89° C | 21% | 1013.8 hPa | 0 mm | - | - | - |
* Rain latest hour (hover to see other rain measurements)
** Current wind speed in m/s (hover to see current wind gust speed)